Time;durP1;ratioP1;P1;durP2;ratioP2;P2;SDS_P1;SDS_P2;PMS_P1;PMS_P2;Temp;Humidity;BMP_temperature;BMP_pressure;BME280_temperature;BME280_humidity;BME280_pressure;Samples;Min_cycle;Max_cycle;Signal;HPM_P1;HPM_P2
2022/02/23 00:01:17;;;;;;;;;;;;;;;21.26;26.06;96034.47;10440697;28;1771;-46
2022/02/23 00:06:19;;;;;;;;;;;;;;;21.27;26.34;96048.47;10413873;28;1942;-48
2022/02/23 00:11:19;;;;;;;;;;;;;;;21.25;25.89;96034.72;10425758;28;1791;-47
2022/02/23 00:16:19;;;;;;;;;;;;;;;21.24;26.08;96043.72;10419832;28;1705;-47
2022/02/23 00:21:19;;;;;;;;;;;;;;;21.25;26.25;96038.16;10425414;28;1918;-47
2022/02/23 00:26:20;;;;;;;;;;;;;;;21.24;26.15;96044.50;10450317;28;1910;-47
2022/02/23 00:31:20;;;;;;;;;;;;;;;21.24;26.00;96054.25;10446091;28;1896;-46
2022/02/23 00:36:21;;;;;;;;;;;;;;;21.23;26.14;96050.03;10448297;28;1811;-51
2022/02/23 00:41:22;;;;;;;;;;;;;;;21.21;25.92;96039.75;10428988;28;1838;-50
2022/02/23 00:46:22;;;;;;;;;;;;;;;21.23;25.99;96050.81;10445815;28;1983;-50
2022/02/23 00:51:23;;;;;;;;;;;;;;;21.22;25.95;96051.09;10442413;28;1817;-50
2022/02/23 00:56:23;;;;;;;;;;;;;;;21.22;25.80;96059.03;10442507;28;1837;-46
2022/02/23 01:01:24;;;;;;;;;;;;;;;21.21;26.02;96055.59;10447002;28;1812;-50
2022/02/23 01:06:24;;;;;;;;;;;;;;;21.20;26.05;96046.13;10428707;28;1979;-48
2022/02/23 01:11:25;;;;;;;;;;;;;;;21.20;26.03;96042.69;10442894;28;1795;-45
2022/02/23 01:16:25;;;;;;;;;;;;;;;21.21;25.94;96033.69;10429863;28;1838;-47
2022/02/23 01:21:26;;;;;;;;;;;;;;;21.21;26.14;96038.97;10415931;28;1845;-45
2022/02/23 01:26:26;;;;;;;;;;;;;;;21.21;25.92;96034.50;10430957;28;1880;-46
2022/02/23 01:31:27;;;;;;;;;;;;;;;21.21;25.83;96033.69;10428426;28;1844;-48
2022/02/23 01:36:27;;;;;;;;;;;;;;;21.23;26.06;96047.41;10429583;28;1858;-51
2022/02/23 01:41:29;;;;;;;;;;;;;;;21.24;26.45;96062.16;10430144;28;1836;-48
2022/02/23 01:46:30;;;;;;;;;;;;;;;21.23;26.18;96053.47;10429475;28;1964;-47
2022/02/23 01:51:31;;;;;;;;;;;;;;;21.22;26.08;96051.91;10434508;28;1753;-48
2022/02/23 01:56:31;;;;;;;;;;;;;;;21.22;25.98;96064.28;10441815;28;1833;-49
2022/02/23 02:01:33;;;;;;;;;;;;;;;21.23;26.13;96057.94;10443265;28;1832;-47
2022/02/23 02:06:34;;;;;;;;;;;;;;;21.23;26.02;96063.22;10447649;28;1973;-49
2022/02/23 02:11:35;;;;;;;;;;;;;;;21.24;26.32;96064.81;10420027;28;1811;-47
2022/02/23 02:16:36;;;;;;;;;;;;;;;21.24;26.04;96075.34;10444300;28;1933;-47
2022/02/23 02:21:56;;;;;;;;;;;;;;;21.22;26.09;96072.19;10443373;28;1897;-49
2022/02/23 02:27:01;;;;;;;;;;;;;;;21.22;25.70;96070.34;10439741;28;1906;-46
2022/02/23 02:32:03;;;;;;;;;;;;;;;21.22;26.38;96067.72;10423338;28;1916;-50
2022/02/23 02:37:04;;;;;;;;;;;;;;;21.22;26.00;96072.19;10432574;28;2109;-47
2022/02/23 02:42:04;;;;;;;;;;;;;;;21.22;25.74;96073.00;10422123;28;2026;-47
2022/02/23 02:47:05;;;;;;;;;;;;;;;21.22;26.00;96077.47;10445348;28;1983;-46
2022/02/23 02:52:06;;;;;;;;;;;;;;;21.24;26.03;96083.25;10420772;28;1797;-48
2022/02/23 02:57:06;;;;;;;;;;;;;;;21.22;25.97;96085.38;10417359;28;1968;-46
2022/02/23 03:02:07;;;;;;;;;;;;;;;21.23;26.05;96084.31;10445332;28;2034;-46
2022/02/23 03:07:07;;;;;;;;;;;;;;;21.21;26.04;96081.16;10424175;28;1991;-46
2022/02/23 03:12:08;;;;;;;;;;;;;;;21.23;26.36;96093.00;10418749;28;1948;-46
2022/02/23 03:17:08;;;;;;;;;;;;;;;21.24;26.20;96107.78;10441788;28;1919;-50
2022/02/23 03:22:09;;;;;;;;;;;;;;;21.24;26.33;96112.25;10439071;28;1892;-47
2022/02/23 03:27:09;;;;;;;;;;;;;;;21.27;26.16;96111.75;10421835;28;2018;-50
2022/02/23 03:32:10;;;;;;;;;;;;;;;21.23;26.24;96108.84;10420713;28;1955;-49
2022/02/23 03:37:10;;;;;;;;;;;;;;;21.24;26.21;96110.44;10438045;28;1940;-49
2022/02/23 03:42:10;;;;;;;;;;;;;;;21.24;25.91;96141.28;10441881;28;1929;-51
2022/02/23 03:47:11;;;;;;;;;;;;;;;21.24;26.05;96143.91;10439541;28;1997;-46
2022/02/23 03:52:12;;;;;;;;;;;;;;;21.26;26.28;96189.25;10437987;28;1905;-46
2022/02/23 03:57:13;;;;;;;;;;;;;;;21.27;26.30;96212.69;10431860;28;1963;-48
2022/02/23 04:02:13;;;;;;;;;;;;;;;21.29;26.55;96275.75;10450387;28;1969;-48
2022/02/23 04:07:13;;;;;;;;;;;;;;;21.35;27.18;96306.31;10447110;28;2054;-50
2022/02/23 04:12:15;;;;;;;;;;;;;;;21.40;27.34;96317.66;10449962;28;1905;-50
2022/02/23 04:17:15;;;;;;;;;;;;;;;21.37;26.78;96322.66;10431899;28;2018;-50
2022/02/23 04:22:15;;;;;;;;;;;;;;;21.36;26.92;96331.63;10430021;28;2093;-48
2022/02/23 04:27:16;;;;;;;;;;;;;;;21.34;26.54;96352.19;10453245;28;1987;-50
2022/02/23 04:32:16;;;;;;;;;;;;;;;21.33;26.46;96363.81;10429913;28;1925;-47
2022/02/23 04:37:16;;;;;;;;;;;;;;;21.31;26.38;96365.91;10431960;28;1916;-45
2022/02/23 04:42:17;;;;;;;;;;;;;;;21.31;26.40;96385.16;10430816;28;1850;-44
2022/02/23 04:47:17;;;;;;;;;;;;;;;21.32;26.54;96393.84;10432219;28;1950;-48
2022/02/23 04:52:18;;;;;;;;;;;;;;;21.31;26.39;96394.94;10430334;28;2025;-46
2022/02/23 04:57:18;;;;;;;;;;;;;;;21.31;26.26;96394.94;10430936;28;1928;-48
2022/02/23 05:02:19;;;;;;;;;;;;;;;21.31;26.24;96393.06;10429413;28;1930;-49
2022/02/23 05:07:20;;;;;;;;;;;;;;;21.32;26.29;96399.13;10445259;28;1932;-44
2022/02/23 05:12:21;;;;;;;;;;;;;;;21.33;26.22;96400.72;10447262;28;2003;-46
2022/02/23 05:17:21;;;;;;;;;;;;;;;21.33;26.05;96419.19;10434394;28;1941;-45
2022/02/23 05:22:21;;;;;;;;;;;;;;;21.33;26.01;96419.19;10426410;28;1874;-46
2022/02/23 05:27:22;;;;;;;;;;;;;;;21.33;26.17;96427.09;10446930;28;1955;-47
2022/02/23 05:32:22;;;;;;;;;;;;;;;21.34;25.96;96450.56;10446750;28;1991;-46
2022/02/23 05:37:23;;;;;;;;;;;;;;;21.33;26.21;96458.75;10442883;28;1924;-49
2022/02/23 05:42:23;;;;;;;;;;;;;;;21.32;26.25;96463.22;10446896;28;2024;-48
2022/02/23 05:47:24;;;;;;;;;;;;;;;21.32;26.01;96480.88;10426578;28;1993;-50
2022/02/23 05:52:24;;;;;;;;;;;;;;;21.34;26.36;96491.97;10440587;28;1956;-49
2022/02/23 05:57:25;;;;;;;;;;;;;;;21.33;26.21;96500.94;10426770;28;2092;-46
2022/02/23 06:02:25;;;;;;;;;;;;;;;21.33;26.09;96503.56;10425826;28;1901;-52
2022/02/23 06:07:25;;;;;;;;;;;;;;;21.33;25.89;96514.91;10425806;28;2039;-48
2022/02/23 06:12:26;;;;;;;;;;;;;;;21.34;25.88;96523.59;10426646;28;2139;-48
2022/02/23 06:17:28;;;;;;;;;;;;;;;21.35;26.17;96541.03;10443755;28;1835;-47
2022/02/23 06:22:29;;;;;;;;;;;;;;;21.34;26.10;96548.16;10425160;28;2098;-47
2022/02/23 06:27:30;;;;;;;;;;;;;;;21.33;25.89;96549.19;10439661;28;1948;-48
2022/02/23 06:32:31;;;;;;;;;;;;;;;21.33;25.82;96557.09;10442823;28;1857;-48
2022/02/23 06:37:32;;;;;;;;;;;;;;;21.34;26.00;96560.53;10442428;28;2348;-46
2022/02/23 06:42:33;;;;;;;;;;;;;;;21.70;26.30;96559.59;10436853;28;2353;-44
2022/02/23 06:47:33;;;;;;;;;;;;;;;21.84;26.25;96573.91;10435272;28;2321;-46
2022/02/23 06:52:34;;;;;;;;;;;;;;;21.98;26.07;96582.88;10415597;28;1962;-45
2022/02/23 06:57:36;;;;;;;;;;;;;;;22.07;26.39;96586.56;10418335;28;2066;-44
2022/02/23 07:02:36;;;;;;;;;;;;;;;22.12;25.89;96593.72;10423840;28;1464;-48
2022/02/23 07:07:37;;;;;;;;;;;;;;;22.17;25.68;96596.38;10440985;28;2082;-47
2022/02/23 07:12:37;;;;;;;;;;;;;;;22.21;25.79;96600.06;10423129;28;2027;-45
2022/02/23 07:17:37;;;;;;;;;;;;;;;22.24;25.63;96605.63;10420441;28;1996;-47
2022/02/23 07:22:38;;;;;;;;;;;;;;;22.27;25.65;96614.88;10421464;28;1896;-51
2022/02/23 07:27:38;;;;;;;;;;;;;;;22.28;25.52;96625.16;10423309;28;1938;-47
2022/02/23 07:32:39;;;;;;;;;;;;;;;22.31;25.40;96640.50;10419491;28;2056;-47
2022/02/23 07:37:41;;;;;;;;;;;;;;;22.34;25.70;96645.22;10427544;28;2029;-48
2022/02/23 07:42:42;;;;;;;;;;;;;;;22.35;25.37;96644.19;10437722;28;2268;-45
2022/02/23 07:47:43;;;;;;;;;;;;;;;22.39;25.55;96652.38;10439023;28;2003;-46
2022/02/23 07:52:44;;;;;;;;;;;;;;;22.41;25.67;96655.53;10413799;28;1960;-44
2022/02/23 07:57:44;;;;;;;;;;;;;;;22.41;25.26;96656.34;10441864;28;2009;-47
2022/02/23 08:02:45;;;;;;;;;;;;;;;22.43;25.53;96659.53;10421911;28;1905;-63
2022/02/23 08:07:45;;;;;;;;;;;;;;;22.38;25.81;96666.66;10418267;28;2023;-45
2022/02/23 08:12:46;;;;;;;;;;;;;;;22.24;25.72;96660.28;10436802;28;1947;-45
2022/02/23 08:23:06;;;;;;;;;;;;;;;22.03;25.76;96695.63;10437518;28;1990;-44
2022/02/23 08:28:06;;;;;;;;;;;;;;;21.96;25.96;96695.88;10438808;28;1909;-45
2022/02/23 08:33:06;;;;;;;;;;;;;;;21.93;26.49;96699.00;10439346;28;1963;-47
2022/02/23 08:38:11;;;;;;;;;;;;;;;22.05;27.01;96702.22;10435672;28;1952;-48
2022/02/23 08:43:12;;;;;;;;;;;;;;;21.93;26.45;96698.25;10443471;28;2464;-48
2022/02/23 08:48:12;;;;;;;;;;;;;;;21.90;26.43;96707.47;10428282;28;2069;-47
2022/02/23 08:53:12;;;;;;;;;;;;;;;21.88;26.58;96719.34;10444137;28;1941;-46
2022/02/23 08:58:15;;;;;;;;;;;;;;;21.82;27.01;96710.59;10444394;28;1909;-50
2022/02/23 09:03:15;;;;;;;;;;;;;;;21.99;27.85;96713.81;10424866;28;2001;-46
2022/02/23 09:08:16;;;;;;;;;;;;;;;22.10;27.36;96725.22;10423647;28;2569;-46
2022/02/23 09:13:17;;;;;;;;;;;;;;;22.15;28.79;96720.75;10440617;28;1828;-45
2022/02/23 09:18:17;;;;;;;;;;;;;;;22.12;27.48;96723.09;10440731;28;1873;-45
2022/02/23 09:23:19;;;;;;;;;;;;;;;22.00;26.95;96728.63;10443791;28;1957;-44
2022/02/23 09:28:21;;;;;;;;;;;;;;;21.99;27.44;96726.25;10444455;28;1983;-46
2022/02/23 09:33:21;;;;;;;;;;;;;;;21.93;27.15;96730.69;10441723;28;1970;-47
2022/02/23 09:38:22;;;;;;;;;;;;;;;21.93;27.42;96732.56;10443429;28;1979;-45
2022/02/23 09:43:22;;;;;;;;;;;;;;;21.98;27.82;96730.72;10444738;28;1899;-49
2022/02/23 09:48:25;;;;;;;;;;;;;;;22.08;28.69;96725.47;10441142;28;2040;-46
2022/02/23 09:53:25;;;;;;;;;;;;;;;22.02;28.17;96731.78;10440100;28;1877;-48
2022/02/23 09:58:25;;;;;;;;;;;;;;;22.05;27.64;96731.25;10409023;28;1845;-48
2022/02/23 10:03:27;;;;;;;;;;;;;;;22.06;27.84;96737.34;10445994;28;1834;-47
2022/02/23 10:08:32;;;;;;;;;;;;;;;22.12;28.14;96731.03;10423440;28;1971;-51
2022/02/23 10:13:32;;;;;;;;;;;;;;;22.13;28.57;96725.50;10443977;28;1902;-48
2022/02/23 10:18:33;;;;;;;;;;;;;;;22.15;28.57;96730.53;10446940;28;1923;-46
2022/02/23 10:23:34;;;;;;;;;;;;;;;22.20;28.58;96726.03;10421812;28;1937;-47
2022/02/23 10:28:35;;;;;;;;;;;;;;;22.20;28.94;96723.41;10439777;28;1935;-47
2022/02/23 10:33:38;;;;;;;;;;;;;;;22.22;29.30;96716.00;10442833;28;1840;-45
2022/02/23 10:38:40;;;;;;;;;;;;;;;22.21;29.50;96721.56;10444009;28;1912;-47
2022/02/23 10:43:43;;;;;;;;;;;;;;;22.24;29.28;96719.19;10442185;28;1794;-52
2022/02/23 10:48:45;;;;;;;;;;;;;;;22.27;28.94;96723.94;10439877;28;2251;-47
2022/02/23 10:53:46;;;;;;;;;;;;;;;22.24;29.43;96716.53;10437873;28;1773;-49
2022/02/23 10:58:46;;;;;;;;;;;;;;;22.23;29.39;96724.72;10419335;28;2008;-45
2022/02/23 11:03:48;;;;;;;;;;;;;;;22.29;29.33;96711.28;10424487;28;1810;-50
2022/02/23 11:08:49;;;;;;;;;;;;;;;22.30;29.47;96712.84;10415195;28;1985;-48
2022/02/23 11:13:50;;;;;;;;;;;;;;;22.30;29.33;96707.56;10418423;28;1839;-47
2022/02/23 11:18:52;;;;;;;;;;;;;;;22.33;29.39;96706.25;10442875;28;1778;-46
2022/02/23 11:23:56;;;;;;;;;;;;;;;22.28;29.69;96703.59;10436802;28;1827;-49
2022/02/23 11:28:57;;;;;;;;;;;;;;;22.28;29.61;96700.94;10412838;28;2013;-45
2022/02/23 11:34:16;;;;;;;;;;;;;;;22.27;29.72;96692.25;10422718;28;1822;-48
2022/02/23 11:39:17;;;;;;;;;;;;;;;22.28;29.76;96683.25;10424441;28;1814;-46
2022/02/23 11:44:25;;;;;;;;;;;;;;;22.26;29.88;96672.16;10418482;28;1899;-52
2022/02/23 11:49:29;;;;;;;;;;;;;;;22.26;30.18;96680.09;10418459;28;1969;-48
2022/02/23 11:54:50;;;;;;;;;;;;;;;22.31;29.89;96672.19;10438468;28;1906;-48
2022/02/23 11:59:50;;;;;;;;;;;;;;;22.24;30.32;96655.78;10435312;28;1816;-49
2022/02/23 12:04:51;;;;;;;;;;;;;;;22.21;30.15;96647.59;10438835;28;1832;-48
2022/02/23 12:09:58;;;;;;;;;;;;;;;22.14;30.21;96645.22;10438865;28;1906;-47
2022/02/23 12:15:01;;;;;;;;;;;;;;;22.14;30.03;96634.66;10430213;28;1832;-46
2022/02/23 12:20:01;;;;;;;;;;;;;;;22.08;30.10;96619.84;10440468;28;1828;-47
2022/02/23 12:25:04;;;;;;;;;;;;;;;22.04;30.21;96618.00;10447333;28;1762;-49
2022/02/23 12:30:05;;;;;;;;;;;;;;;22.03;30.01;96600.59;10424780;28;1973;-48
2022/02/23 12:35:07;;;;;;;;;;;;;;;21.99;30.09;96605.56;10427090;28;1824;-47
2022/02/23 12:40:09;;;;;;;;;;;;;;;21.98;29.84;96590.81;10410052;28;1697;-46
2022/02/23 12:45:09;;;;;;;;;;;;;;;22.00;30.09;96591.34;10424102;28;1962;-47
2022/02/23 12:50:10;;;;;;;;;;;;;;;21.99;30.09;96583.69;10426055;28;1969;-52
2022/02/23 12:55:10;;;;;;;;;;;;;;;21.97;30.18;96581.28;10443035;28;1852;-50
2022/02/23 13:00:11;;;;;;;;;;;;;;;21.97;30.19;96575.25;10440532;28;1856;-46
2022/02/23 13:05:13;;;;;;;;;;;;;;;22.03;30.31;96569.69;10443337;28;1809;-52
2022/02/23 13:10:14;;;;;;;;;;;;;;;22.02;30.37;96557.53;10429560;28;1973;-52
2022/02/23 13:15:15;;;;;;;;;;;;;;;22.14;30.52;96557.28;10425478;28;1868;-49
2022/02/23 13:20:19;;;;;;;;;;;;;;;22.62;29.93;96547.00;10433148;28;1839;-46
2022/02/23 13:25:20;;;;;;;;;;;;;;;22.64;29.47;96547.50;10445194;28;1862;-51
2022/02/23 13:30:21;;;;;;;;;;;;;;;22.63;29.67;96550.41;10444291;28;1932;-50
2022/02/23 13:35:21;;;;;;;;;;;;;;;22.76;29.72;96536.63;10426867;28;1816;-53
2022/02/23 13:40:23;;;;;;;;;;;;;;;23.31;28.90;96531.16;10441770;28;1836;-47
2022/02/23 13:45:24;;;;;;;;;;;;;;;23.31;28.35;96525.06;10422707;28;1853;-51
2022/02/23 13:50:26;;;;;;;;;;;;;;;23.03;28.97;96525.72;10442100;28;1910;-50
2022/02/23 13:55:30;;;;;;;;;;;;;;;23.30;28.60;96523.50;10424790;28;1891;-49
2022/02/23 14:00:38;;;;;;;;;;;;;;;23.86;27.82;96522.13;10443365;28;2046;-45
2022/02/23 14:05:42;;;;;;;;;;;;;;;23.92;27.92;96518.38;10422095;28;1878;-46
2022/02/23 14:10:42;;;;;;;;;;;;;;;23.52;27.78;96508.03;10427649;28;1926;-49
2022/02/23 14:15:43;;;;;;;;;;;;;;;23.11;28.41;96509.28;10443517;28;1768;-48
2022/02/23 14:20:44;;;;;;;;;;;;;;;22.79;29.13;96506.25;10429609;28;1826;-48
2022/02/23 14:26:03;;;;;;;;;;;;;;;22.70;28.98;96506.00;10423153;28;1848;-52
2022/02/23 14:31:22;;;;;;;;;;;;;;;22.50;29.48;96496.22;10432280;28;1906;-48
2022/02/23 14:36:23;;;;;;;;;;;;;;;22.47;29.29;96491.50;10441724;28;1798;-46
2022/02/23 14:41:26;;;;;;;;;;;;;;;22.36;29.59;96482.00;10421935;28;1770;-45
2022/02/23 14:46:27;;;;;;;;;;;;;;;22.29;29.78;96489.41;10444671;28;1977;-46
2022/02/23 14:51:27;;;;;;;;;;;;;;;22.26;29.64;96489.13;10420040;28;1906;-45
2022/02/23 14:56:28;;;;;;;;;;;;;;;22.24;30.08;96480.69;10442178;28;1911;-45
2022/02/23 15:01:28;;;;;;;;;;;;;;;22.20;30.00;96475.16;10416380;28;1803;-45
2022/02/23 15:06:28;;;;;;;;;;;;;;;22.20;29.71;96474.34;10423730;28;1830;-48
2022/02/23 15:11:29;;;;;;;;;;;;;;;22.16;29.97;96468.03;10425401;28;1961;-46
2022/02/23 15:16:30;;;;;;;;;;;;;;;22.16;29.72;96457.47;10421888;28;1850;-51
2022/02/23 15:21:30;;;;;;;;;;;;;;;22.10;30.14;96458.53;10438121;28;1837;-49
2022/02/23 15:26:31;;;;;;;;;;;;;;;22.12;30.20;96454.56;10439163;28;1897;-47
2022/02/23 15:31:32;;;;;;;;;;;;;;;22.14;29.83;96444.53;10437907;28;1941;-46
2022/02/23 15:36:33;;;;;;;;;;;;;;;22.15;29.91;96440.06;10425388;28;1971;-46
2022/02/23 15:41:34;;;;;;;;;;;;;;;22.19;30.07;96433.19;10423249;28;1835;-46
2022/02/23 15:46:35;;;;;;;;;;;;;;;22.16;29.97;96431.84;10426567;28;1931;-46
2022/02/23 15:51:36;;;;;;;;;;;;;;;22.14;30.03;96426.06;10446209;28;1969;-47
2022/02/23 15:56:36;;;;;;;;;;;;;;;22.14;30.24;96427.88;10430433;28;1818;-45
2022/02/23 16:01:37;;;;;;;;;;;;;;;22.10;30.02;96425.00;10425243;28;1768;-47
2022/02/23 16:06:38;;;;;;;;;;;;;;;22.16;30.08;96416.00;10423560;28;1790;-48
2022/02/23 16:11:38;;;;;;;;;;;;;;;22.12;29.70;96412.31;10432863;28;1906;-46
2022/02/23 16:16:39;;;;;;;;;;;;;;;22.14;29.73;96410.22;10444677;28;1954;-47
2022/02/23 16:21:39;;;;;;;;;;;;;;;22.12;29.89;96412.31;10446776;28;1928;-48
2022/02/23 16:26:39;;;;;;;;;;;;;;;22.16;29.62;96397.53;10434995;28;1886;-45
2022/02/23 16:31:40;;;;;;;;;;;;;;;22.14;29.73;96398.84;10446252;28;1906;-46
2022/02/23 16:36:41;;;;;;;;;;;;;;;22.14;29.60;96396.22;10427642;28;1994;-46
2022/02/23 16:41:41;;;;;;;;;;;;;;;22.13;29.75;96384.06;10420880;28;2369;-46
2022/02/23 16:46:43;;;;;;;;;;;;;;;22.14;29.79;96391.72;10445425;28;1868;-48
2022/02/23 16:51:43;;;;;;;;;;;;;;;22.16;29.45;96392.25;10444029;28;1977;-46
2022/02/23 16:56:43;;;;;;;;;;;;;;;22.19;29.46;96393.56;10443761;28;1767;-49
2022/02/23 17:01:44;;;;;;;;;;;;;;;22.21;29.53;96394.88;10425211;28;1808;-47
2022/02/23 17:06:45;;;;;;;;;;;;;;;22.24;29.16;96396.19;10445335;28;1736;-46
2022/02/23 17:11:45;;;;;;;;;;;;;;;22.24;29.17;96389.06;10435392;28;1910;-49
2022/02/23 17:16:47;;;;;;;;;;;;;;;22.23;29.03;96387.50;10446003;28;1843;-46
2022/02/23 17:21:48;;;;;;;;;;;;;;;22.24;28.95;96394.34;10425750;28;1864;-48
2022/02/23 17:26:51;;;;;;;;;;;;;;;22.24;29.03;96385.63;10428513;28;1784;-50
2022/02/23 17:31:52;;;;;;;;;;;;;;;22.23;28.89;96384.03;10435797;28;1961;-47
2022/02/23 17:36:52;;;;;;;;;;;;;;;22.23;29.14;96379.56;10428886;28;1795;-47
2022/02/23 17:41:53;;;;;;;;;;;;;;;22.22;29.32;96377.97;10425022;28;1817;-47
2022/02/23 17:46:53;;;;;;;;;;;;;;;22.22;29.16;96372.69;10428925;28;1973;-48
2022/02/23 17:51:54;;;;;;;;;;;;;;;22.23;29.03;96363.72;10409143;28;1828;-55
2022/02/23 17:56:55;;;;;;;;;;;;;;;22.22;29.07;96356.84;10425141;28;1840;-47
2022/02/23 18:01:56;;;;;;;;;;;;;;;22.23;29.20;96353.16;10425420;28;1789;-49
2022/02/23 18:06:56;;;;;;;;;;;;;;;22.26;29.13;96349.16;10440586;28;1910;-46
2022/02/23 18:11:57;;;;;;;;;;;;;;;22.20;29.36;96342.31;10429956;28;1880;-48
2022/02/23 18:16:57;;;;;;;;;;;;;;;22.17;29.46;96337.59;10422742;28;2247;-46
2022/02/23 18:21:58;;;;;;;;;;;;;;;22.08;29.80;96321.50;10422289;28;1729;-47
2022/02/23 18:26:59;;;;;;;;;;;;;;;22.07;29.74;96313.88;10429091;28;1942;-45
2022/02/23 18:32:00;;;;;;;;;;;;;;;22.02;29.88;96314.66;10441910;28;1887;-54
2022/02/23 18:37:01;;;;;;;;;;;;;;;22.04;29.80;96309.09;10444729;28;1871;-48
2022/02/23 18:42:03;;;;;;;;;;;;;;;21.97;29.95;96306.75;10443224;28;1879;-48
2022/02/23 18:47:04;;;;;;;;;;;;;;;21.98;30.31;96297.78;10441015;28;1906;-46
2022/02/23 18:52:05;;;;;;;;;;;;;;;21.98;30.31;96279.31;10422647;28;1835;-45
2022/02/23 18:57:05;;;;;;;;;;;;;;;21.93;30.23;96270.63;10425944;28;1843;-49
2022/02/23 19:02:08;;;;;;;;;;;;;;;21.90;30.24;96269.31;10415416;28;1864;-47
2022/02/23 19:07:08;;;;;;;;;;;;;;;21.86;30.21;96260.34;10439968;28;1976;-51
2022/02/23 19:12:09;;;;;;;;;;;;;;;21.86;30.21;96257.72;10422948;28;2199;-51
2022/02/23 19:17:12;;;;;;;;;;;;;;;21.84;30.02;96244.00;10421505;28;1870;-49
2022/02/23 19:22:12;;;;;;;;;;;;;;;21.83;30.00;96237.13;10423234;28;1863;-48
2022/02/23 19:27:13;;;;;;;;;;;;;;;21.86;29.77;96228.69;10447324;28;1913;-49
2022/02/23 19:32:13;;;;;;;;;;;;;;;21.84;29.60;96215.72;10441508;28;1822;-47
2022/02/23 19:37:14;;;;;;;;;;;;;;;21.81;29.53;96221.56;10424978;28;1830;-49
2022/02/23 19:42:14;;;;;;;;;;;;;;;21.85;29.55;96213.88;10423944;28;1869;-47
2022/02/23 19:47:14;;;;;;;;;;;;;;;21.85;29.67;96205.97;10422994;28;1910;-48
2022/02/23 19:52:15;;;;;;;;;;;;;;;21.86;29.24;96191.72;10440654;28;1922;-52
2022/02/23 19:57:15;;;;;;;;;;;;;;;21.80;29.55;96180.34;10445594;28;1790;-49
2022/02/23 20:02:16;;;;;;;;;;;;;;;21.85;29.33;96172.47;10436225;28;1804;-48
2022/02/23 20:07:16;;;;;;;;;;;;;;;21.86;28.98;96160.81;10424509;28;1933;-51
2022/02/23 20:12:17;;;;;;;;;;;;;;;21.83;29.27;96153.47;10406008;28;1819;-47
2022/02/23 20:17:17;;;;;;;;;;;;;;;21.21;26.58;96137.31;10425625;28;1903;-49
2022/02/23 20:22:19;;;;;;;;;;;;;;;19.99;27.83;96140.19;10437847;28;1870;-49
2022/02/23 20:27:19;;;;;;;;;;;;;;;20.58;29.31;96136.06;10441422;28;2013;-49
2022/02/23 20:32:20;;;;;;;;;;;;;;;21.08;30.25;96127.34;10420508;28;1815;-49
2022/02/23 20:37:20;;;;;;;;;;;;;;;21.34;30.67;96115.66;10445605;28;2017;-52
2022/02/23 20:42:21;;;;;;;;;;;;;;;21.59;30.87;96112.13;10446096;28;1949;-51
2022/02/23 20:47:22;;;;;;;;;;;;;;;21.72;30.99;96114.19;10448740;28;2253;-50
2022/02/23 20:52:23;;;;;;;;;;;;;;;21.84;30.50;96118.09;10449264;28;2238;-48
2022/02/23 20:57:27;;;;;;;;;;;;;;;21.88;30.46;96112.28;10433671;28;2178;-46
2022/02/23 21:02:28;;;;;;;;;;;;;;;21.92;30.33;96119.38;10435606;28;1930;-48
2022/02/23 21:07:28;;;;;;;;;;;;;;;21.92;29.95;96114.09;10430435;28;1913;-51
2022/02/23 21:12:29;;;;;;;;;;;;;;;21.96;29.61;96114.34;10445088;28;1916;-50
2022/02/23 21:17:29;;;;;;;;;;;;;;;22.00;29.38;96110.09;10429639;28;1939;-46
2022/02/23 21:22:30;;;;;;;;;;;;;;;22.01;29.50;96107.16;10429198;28;1780;-51
2022/02/23 21:27:30;;;;;;;;;;;;;;;22.04;29.57;96100.56;10445072;28;1910;-50
2022/02/23 21:32:31;;;;;;;;;;;;;;;22.01;29.19;96104.53;10443857;28;1833;-49
2022/02/23 21:37:32;;;;;;;;;;;;;;;22.03;29.19;96093.72;10446393;28;1779;-48
2022/02/23 21:42:32;;;;;;;;;;;;;;;22.04;29.24;96085.50;10444713;28;1810;-49
2022/02/23 21:47:33;;;;;;;;;;;;;;;22.07;29.41;96076.25;10441261;28;1902;-51
2022/02/23 21:52:34;;;;;;;;;;;;;;;22.04;29.00;96069.69;10422467;28;1953;-49
2022/02/23 21:57:35;;;;;;;;;;;;;;;22.03;28.33;96076.00;10426485;28;1894;-47
2022/02/23 22:02:36;;;;;;;;;;;;;;;22.02;28.83;96071.81;10428288;28;1919;-49
2022/02/23 22:07:36;;;;;;;;;;;;;;;22.03;28.60;96077.88;10422587;28;1934;-49
2022/02/23 22:12:36;;;;;;;;;;;;;;;22.01;28.41;96080.00;10427939;28;1844;-46
2022/02/23 22:17:37;;;;;;;;;;;;;;;21.98;28.37;96076.06;10441029;28;1840;-48
2022/02/23 22:22:37;;;;;;;;;;;;;;;22.01;28.79;96083.41;10439240;28;1796;-47
2022/02/23 22:27:37;;;;;;;;;;;;;;;21.97;28.48;96077.09;10444758;28;1906;-46
2022/02/23 22:32:38;;;;;;;;;;;;;;;21.99;28.89;96067.06;10424375;28;1824;-48
2022/02/23 22:37:38;;;;;;;;;;;;;;;22.01;28.70;96077.38;10422223;28;1857;-49
2022/02/23 22:42:38;;;;;;;;;;;;;;;21.99;28.45;96067.06;10437685;28;1804;-49
2022/02/23 22:47:39;;;;;;;;;;;;;;;21.98;28.62;96062.84;10439249;28;1910;-49
2022/02/23 22:52:39;;;;;;;;;;;;;;;21.98;28.31;96065.50;10419386;28;1842;-49
2022/02/23 22:57:41;;;;;;;;;;;;;;;21.97;28.75;96050.69;10439656;28;1806;-46
2022/02/23 23:02:41;;;;;;;;;;;;;;;21.98;28.35;96062.84;10439794;28;1905;-47
2022/02/23 23:07:43;;;;;;;;;;;;;;;21.95;28.05;96066.03;10443782;28;1981;-47
2022/02/23 23:12:43;;;;;;;;;;;;;;;21.98;28.58;96060.22;10441652;28;1800;-51
2022/02/23 23:17:43;;;;;;;;;;;;;;;21.96;27.93;96057.06;10418086;28;1780;-49
2022/02/23 23:22:44;;;;;;;;;;;;;;;21.95;28.32;96060.75;10436262;28;1810;-47
2022/02/23 23:27:45;;;;;;;;;;;;;;;21.94;28.08;96056.56;10442266;28;2029;-50
2022/02/23 23:32:45;;;;;;;;;;;;;;;21.94;27.88;96055.75;10418541;28;1868;-46
2022/02/23 23:37:46;;;;;;;;;;;;;;;21.95;28.03;96044.16;10436124;28;1800;-46
2022/02/23 23:42:46;;;;;;;;;;;;;;;21.96;27.86;96051.78;10420317;28;1820;-47
2022/02/23 23:47:46;;;;;;;;;;;;;;;21.95;27.69;96029.06;10416634;28;1890;-47
2022/02/23 23:52:47;;;;;;;;;;;;;;;21.96;27.92;96022.75;10420136;28;1642;-49
2022/02/23 23:57:48;;;;;;;;;;;;;;;21.97;27.97;96023.53;10412125;28;1819;-46
